Pagina principale
METAR-TAF:

METAR-TAF

Aeroporti :

Aeroporto di Trapani-Birgi

Trapani, Italia

latitudine: 37-55N, longitudine: 012-30E, altezza: 7 m

Osservazione

Il bollettino è stato emesso 1 ora e 5 minuti fa, alle 10:55 UTC
Vento 13 kt da nord
Temperature 24°C
Umidità 78%
Pressione 1022 hPa
Visibilità 10 km o più
Poco nuvoloso ad un'altezza di 1500 ft

METAR: LICT 191055Z 35013KT 9999 FEW015 24/20 Q1022 WS RWY 31 RMK FEW VIS MIN 9999 WIND THR13 02014KT BLU

Ora: 14:00 (12:00 UTC)

Previsione

Il bollettino è stato emesso 1 ora e 0 minuti fa, alle 11:00 UTC
Previsione valida dal 19 alle 12 UTC al 19 alle 21 UTC
Vento 15 kt da nord
Visibilità 10 km o più
nessuna nube inferiore a 1500 m e nessun cumulonembo
Temporaneamente
dal 19 alle 12 UTC al 19 alle 15 UTC
Vento 15 kt da nord con raffiche fino a 25 kt
Evoluzione graduale
dal 19 alle 18 UTC al 19 alle 20 UTC
Vento 6 kt da est/sud-est

TAF: LICT 191100Z 1912/1921 36015KT CAVOK TEMPO 1912/1915 36015G25KT BECMG 1918/1920 12006KT

Osservazioni e previsioni meteorologiche di più di 4000 aeroporti (messaggi METAR e TAF).

Le stazioni disponibili sono rappresentate dai dischi gialli e rossi sulla carta.

Puntare il mouse per vedere il nome della stazione.

Clicca sopra per visualizzare le osservazioni e previsioni meteorologiche.

Per cambiare la mappa : fare clic sui pulsanti verdi con una croce nera per ingrandire, il pulsante verde con un trattino per diminuire, o sulla freccia verde per le mappe adiacenti.


METAR-TAF: